createdAt,value
2023-01-17T00:02:17.832Z,21.65
2023-01-17T00:05:03.625Z,21.38
2023-01-17T00:07:49.262Z,20.60
2023-01-17T00:10:21.804Z,20.85
2023-01-17T00:13:02.716Z,21.85
2023-01-17T00:15:31.425Z,22.60
2023-01-17T00:17:58.781Z,22.02
2023-01-17T00:20:47.507Z,21.60
2023-01-17T00:23:37.649Z,22.08
2023-01-17T00:26:10.157Z,21.40
2023-01-17T00:28:41.150Z,20.98
2023-01-17T00:31:09.452Z,21.65
2023-01-17T00:33:39.400Z,22.63
2023-01-17T00:36:07.162Z,22.63
2023-01-17T00:38:36.838Z,23.52
2023-01-17T00:41:06.712Z,21.95
2023-01-17T00:43:54.393Z,23.27
2023-01-17T00:46:40.030Z,21.58
2023-01-17T00:49:25.946Z,21.77
2023-01-17T00:52:11.560Z,22.45
2023-01-17T00:54:56.982Z,22.73
2023-01-17T00:57:42.521Z,22.30
2023-01-17T01:00:28.607Z,22.48
2023-01-17T01:03:13.972Z,23.48
2023-01-17T01:06:01.556Z,22.58
2023-01-17T01:08:48.782Z,22.02
2023-01-17T01:11:36.695Z,24.15
2023-01-17T01:14:23.237Z,24.27
2023-01-17T01:17:08.951Z,24.48
2023-01-17T01:19:54.456Z,24.42
2023-01-17T01:22:39.715Z,25.35
2023-01-17T01:25:25.320Z,24.60
2023-01-17T01:28:10.527Z,24.65
2023-01-17T01:30:56.021Z,24.05
2023-01-17T01:33:22.751Z,25.27
2023-01-17T01:35:51.787Z,25.60
2023-01-17T01:38:20.787Z,24.55
2023-01-17T01:40:53.362Z,25.52
2023-01-17T01:43:42.472Z,24.42
2023-01-17T01:46:15.143Z,25.15
2023-01-17T01:49:06.572Z,26.10
2023-01-17T01:51:45.804Z,25.05
2023-01-17T01:54:22.107Z,24.77
2023-01-17T01:56:50.456Z,25.45
2023-01-17T01:59:23.356Z,25.73
2023-01-17T02:01:53.205Z,25.77
2023-01-17T02:04:20.900Z,26.08
2023-01-17T02:07:00.610Z,23.75
2023-01-17T02:09:27.733Z,25.10
2023-01-17T02:11:55.004Z,24.40
2023-01-17T02:14:22.778Z,26.50
2023-01-17T02:17:01.533Z,25.30
2023-01-17T02:19:48.159Z,25.85
2023-01-17T02:22:34.268Z,25.23
2023-01-17T02:25:31.289Z,24.90
2023-01-17T02:28:16.297Z,23.15
2023-01-17T02:30:54.499Z,22.90
2023-01-17T02:33:38.690Z,25.45
2023-01-17T02:36:22.128Z,24.55
2023-01-17T02:39:11.846Z,24.73
2023-01-17T02:41:42.856Z,24.25
2023-01-17T02:44:11.053Z,25.75
2023-01-17T02:47:27.840Z,23.20
2023-01-17T02:50:01.580Z,25.27
2023-01-17T02:52:46.950Z,22.73
2023-01-17T02:55:32.185Z,23.60
2023-01-17T02:58:32.996Z,25.10
2023-01-17T03:01:43.030Z,24.10
2023-01-17T03:04:23.689Z,24.65
2023-01-17T03:07:02.055Z,23.58
2023-01-17T03:09:33.023Z,24.13
2023-01-17T03:12:00.455Z,25.38
2023-01-17T03:14:31.087Z,24.70
2023-01-17T03:16:58.021Z,25.35
2023-01-17T03:19:24.811Z,23.33
2023-01-17T03:21:51.544Z,24.77
2023-01-17T03:24:18.325Z,25.15
2023-01-17T03:26:45.076Z,23.55
2023-01-17T03:29:11.992Z,25.50
2023-01-17T03:31:38.741Z,23.83
2023-01-17T03:34:05.526Z,23.90
2023-01-17T03:36:32.286Z,26.40
2023-01-17T03:38:59.053Z,25.52
2023-01-17T03:41:26.090Z,23.55
2023-01-17T03:43:55.249Z,24.33
2023-01-17T03:46:24.541Z,26.42
2023-01-17T03:48:52.085Z,25.30
2023-01-17T03:51:19.060Z,23.80
2023-01-17T03:53:48.555Z,24.52
2023-01-17T03:56:15.515Z,24.70
2023-01-17T03:58:42.577Z,24.95
2023-01-17T04:01:09.636Z,24.02
2023-01-17T04:03:36.439Z,24.00
2023-01-17T04:06:03.339Z,24.50
2023-01-17T04:08:30.572Z,23.27
2023-01-17T04:10:57.454Z,24.60
2023-01-17T04:13:24.329Z,24.73
2023-01-17T04:15:51.763Z,22.48
2023-01-17T04:18:20.399Z,23.17
2023-01-17T04:20:47.303Z,23.80
2023-01-17T04:23:14.109Z,23.42
2023-01-17T04:25:40.975Z,23.10
2023-01-17T04:28:07.755Z,24.40
2023-01-17T04:30:34.609Z,23.80
2023-01-17T04:33:02.968Z,23.20
2023-01-17T04:35:31.556Z,23.90
2023-01-17T04:37:58.285Z,23.00
2023-01-17T04:40:27.867Z,22.10
2023-01-17T04:42:54.608Z,24.92
2023-01-17T04:45:21.930Z,24.65
2023-01-17T04:47:48.668Z,24.20
2023-01-17T04:50:15.702Z,23.35
2023-01-17T04:52:45.175Z,23.92
2023-01-17T04:55:11.986Z,23.50
2023-01-17T04:57:38.783Z,24.25
2023-01-17T05:00:06.177Z,22.67
2023-01-17T05:02:33.009Z,24.02
2023-01-17T05:04:59.775Z,25.75
2023-01-17T05:07:26.552Z,23.88
2023-01-17T05:09:53.307Z,24.25
2023-01-17T05:12:20.114Z,22.95
2023-01-17T05:14:49.406Z,21.38
2023-01-17T05:17:16.170Z,20.95
2023-01-17T05:19:42.915Z,21.15
2023-01-17T05:22:15.028Z,21.77
2023-01-17T05:24:45.673Z,23.85
2023-01-17T05:27:13.393Z,23.75
2023-01-17T05:29:42.380Z,24.65
2023-01-17T05:32:09.197Z,25.35
2023-01-17T05:34:38.422Z,23.25
2023-01-17T05:37:05.167Z,24.33
2023-01-17T05:39:31.991Z,22.33
2023-01-17T05:41:59.768Z,25.92
2023-01-17T05:44:29.701Z,25.38
2023-01-17T05:46:56.766Z,21.17
2023-01-17T05:49:23.618Z,21.15
2023-01-17T05:51:50.743Z,23.42
2023-01-17T05:54:18.076Z,21.27
2023-01-17T05:56:47.471Z,21.30
2023-01-17T05:59:14.470Z,22.63
2023-01-17T06:01:41.310Z,22.20
2023-01-17T06:04:08.123Z,24.45
2023-01-17T06:06:34.937Z,23.40
2023-01-17T06:09:01.695Z,25.25
2023-01-17T06:11:28.496Z,24.80
2023-01-17T06:13:55.262Z,23.63
2023-01-17T06:16:22.085Z,24.50
2023-01-17T06:18:48.861Z,25.13
2023-01-17T06:21:15.601Z,26.70
2023-01-17T06:23:45.415Z,25.20
2023-01-17T06:26:12.243Z,24.38
2023-01-17T06:28:39.180Z,25.65
2023-01-17T06:31:09.400Z,25.38
2023-01-17T06:33:36.296Z,24.90
2023-01-17T06:36:06.254Z,26.25
2023-01-17T06:38:33.149Z,25.83
2023-01-17T06:41:06.655Z,27.77
2023-01-17T06:43:34.891Z,25.15
2023-01-17T06:46:02.156Z,26.15
2023-01-17T06:48:30.291Z,26.10
2023-01-17T06:50:58.015Z,26.50
2023-01-17T06:53:28.156Z,28.17
2023-01-17T06:55:58.859Z,28.75
2023-01-17T06:58:26.965Z,26.95
2023-01-17T07:00:53.995Z,26.63
2023-01-17T07:03:23.351Z,26.63
2023-01-17T07:05:52.736Z,25.92
2023-01-17T07:08:20.585Z,23.30
2023-01-17T07:10:48.046Z,26.42
2023-01-17T07:13:15.047Z,25.23
2023-01-17T07:15:44.427Z,24.02
2023-01-17T07:18:11.190Z,25.88
2023-01-17T07:20:38.545Z,26.15
2023-01-17T07:23:06.165Z,25.02
2023-01-17T07:25:32.938Z,25.85
2023-01-17T07:28:00.445Z,25.77
2023-01-17T07:30:30.278Z,28.45
2023-01-17T07:32:57.131Z,28.30
2023-01-17T07:35:27.699Z,27.45
2023-01-17T07:37:54.824Z,27.63
2023-01-17T07:40:22.704Z,27.05
2023-01-17T07:42:49.752Z,25.88
2023-01-17T07:45:19.474Z,24.95
2023-01-17T07:47:51.451Z,26.48
2023-01-17T07:50:18.436Z,26.67
2023-01-17T07:52:49.888Z,24.50
2023-01-17T07:55:19.128Z,25.45
2023-01-17T07:57:49.723Z,24.27
2023-01-17T08:00:17.496Z,25.15
2023-01-17T08:02:53.084Z,28.15
2023-01-17T08:05:21.990Z,25.50
2023-01-17T08:07:51.236Z,28.75
2023-01-17T08:10:18.347Z,28.55
2023-01-17T08:12:49.981Z,26.50
2023-01-17T08:15:17.950Z,27.75
2023-01-17T08:17:49.443Z,26.13
2023-01-17T08:20:16.813Z,26.13
2023-01-17T08:22:43.585Z,24.42
2023-01-17T08:25:10.681Z,24.48
2023-01-17T08:27:37.437Z,24.48
2023-01-17T08:30:05.569Z,25.27
2023-01-17T08:32:32.869Z,24.55
2023-01-17T08:34:59.652Z,22.88
2023-01-17T08:37:26.447Z,21.75
2023-01-17T08:39:53.187Z,20.80
2023-01-17T08:42:20.002Z,21.15
2023-01-17T08:44:48.018Z,21.60
2023-01-17T08:47:14.784Z,22.13
2023-01-17T08:49:45.749Z,20.35
2023-01-17T08:52:16.187Z,19.25
2023-01-17T08:54:42.935Z,22.45
2023-01-17T08:57:10.429Z,20.35
2023-01-17T08:59:37.488Z,19.83
2023-01-17T09:02:15.976Z,23.30
2023-01-17T09:04:47.081Z,21.73
2023-01-17T09:07:15.361Z,18.38
2023-01-17T09:09:44.536Z,18.58
2023-01-17T09:12:11.311Z,20.20
2023-01-17T09:14:38.514Z,25.67
2023-01-17T09:17:13.156Z,18.50
2023-01-17T09:19:46.564Z,18.08
2023-01-17T09:22:13.620Z,17.75
2023-01-17T09:24:42.519Z,16.70
2023-01-17T09:27:09.290Z,17.83
2023-01-17T09:29:36.089Z,17.13
2023-01-17T09:32:04.928Z,15.77
2023-01-17T09:34:31.697Z,14.82
2023-01-17T09:37:00.500Z,15.00
2023-01-17T09:39:27.345Z,12.95
2023-01-17T09:42:21.936Z,14.90
2023-01-17T09:44:53.563Z,13.07
2023-01-17T09:47:43.789Z,12.95
2023-01-17T09:50:20.142Z,31.20
2023-01-17T09:52:49.971Z,10.82
2023-01-17T09:55:18.136Z,11.52
2023-01-17T09:57:51.847Z,11.73
2023-01-17T10:00:27.423Z,14.82
2023-01-17T10:03:29.510Z,11.93
2023-01-17T10:08:41.464Z,9.13
2023-01-17T10:11:24.467Z,9.43
2023-01-17T10:14:24.813Z,8.82
2023-01-17T10:17:01.021Z,8.45
2023-01-17T10:19:55.065Z,9.15
2023-01-17T10:22:44.848Z,13.90
2023-01-17T10:25:28.297Z,11.77
2023-01-17T10:28:02.340Z,12.30
2023-01-17T10:30:33.236Z,9.32
2023-01-17T10:33:03.994Z,10.27
2023-01-17T10:35:34.502Z,8.95
2023-01-17T10:38:05.980Z,9.88
2023-01-17T10:40:57.776Z,11.13
2023-01-17T10:44:03.996Z,10.85
2023-01-17T10:46:40.687Z,10.02
2023-01-17T10:49:22.254Z,15.45
2023-01-17T10:52:00.344Z,12.32
2023-01-17T10:54:33.120Z,12.13
2023-01-17T10:57:01.811Z,10.38
2023-01-17T10:59:37.192Z,11.38
2023-01-17T11:02:14.656Z,11.10
2023-01-17T11:04:42.415Z,11.45
2023-01-17T11:07:15.010Z,25.40
2023-01-17T11:09:44.006Z,11.55
2023-01-17T11:12:40.138Z,9.82
2023-01-17T11:15:22.003Z,10.05
2023-01-17T11:20:39.971Z,10.88
2023-01-17T11:23:18.051Z,9.85
2023-01-17T11:25:58.494Z,9.77
2023-01-17T11:28:31.082Z,9.82
2023-01-17T11:31:09.253Z,9.13
2023-01-17T11:33:47.706Z,9.57
2023-01-17T11:36:27.559Z,10.45
2023-01-17T11:39:17.507Z,9.75
2023-01-17T11:41:48.960Z,9.95
2023-01-17T11:44:33.356Z,9.65
2023-01-17T11:47:12.243Z,9.88
2023-01-17T11:49:49.306Z,14.85
2023-01-17T11:52:33.721Z,10.65
2023-01-17T11:55:00.846Z,11.00
2023-01-17T11:57:30.813Z,11.27
2023-01-17T12:00:46.739Z,10.82
2023-01-17T12:03:19.643Z,9.38
2023-01-17T12:06:00.076Z,10.57
2023-01-17T12:09:02.058Z,11.15
2023-01-17T12:12:14.116Z,9.68
2023-01-17T12:15:09.194Z,22.25
2023-01-17T12:18:05.831Z,9.40
2023-01-17T12:20:55.657Z,10.43
2023-01-17T12:23:48.398Z,10.40
2023-01-17T12:26:38.710Z,13.05
2023-01-17T12:29:32.751Z,10.52
2023-01-17T12:32:28.798Z,11.10
2023-01-17T12:35:35.844Z,11.35
2023-01-17T12:38:09.185Z,11.15
2023-01-17T12:40:40.187Z,9.77
2023-01-17T12:43:25.786Z,10.30
2023-01-17T12:45:54.701Z,10.82
2023-01-17T12:48:30.570Z,10.45
2023-01-17T12:51:31.812Z,9.63
2023-01-17T12:54:33.493Z,11.00
2023-01-17T12:57:14.135Z,9.65
2023-01-17T13:00:01.349Z,10.40
2023-01-17T13:02:36.872Z,9.85
2023-01-17T13:05:16.743Z,13.32
2023-01-17T13:07:55.505Z,12.40
2023-01-17T13:10:22.563Z,13.57
2023-01-17T13:12:53.495Z,11.73
2023-01-17T13:15:25.872Z,10.40
2023-01-17T13:18:14.724Z,10.50
2023-01-17T13:21:06.496Z,9.77
2023-01-17T13:23:55.832Z,10.38
2023-01-17T13:26:28.337Z,10.27
2023-01-17T13:29:15.331Z,11.63
2023-01-17T13:31:48.280Z,11.63
2023-01-17T13:34:40.339Z,11.45
2023-01-17T13:37:26.655Z,10.63
2023-01-17T13:40:05.401Z,11.95
2023-01-17T13:42:56.869Z,12.90
2023-01-17T13:45:37.218Z,12.70
2023-01-17T13:48:37.644Z,14.10
2023-01-17T13:51:07.872Z,13.60
2023-01-17T13:53:34.621Z,14.73
2023-01-17T13:56:10.140Z,13.80
2023-01-17T13:59:02.044Z,14.75
2023-01-17T14:01:38.460Z,14.27
2023-01-17T14:04:17.014Z,14.27
2023-01-17T14:06:55.408Z,14.13
2023-01-17T14:09:41.918Z,15.07
2023-01-17T14:12:11.433Z,13.45
2023-01-17T14:14:43.999Z,14.57
2023-01-17T14:17:26.588Z,14.98
2023-01-17T14:20:04.125Z,14.48
2023-01-17T14:22:38.936Z,13.98
2023-01-17T14:25:11.834Z,15.20
2023-01-17T14:27:51.552Z,14.73
2023-01-17T14:34:34.704Z,13.52
2023-01-17T14:37:57.450Z,14.68
2023-01-17T14:40:26.627Z,15.15
2023-01-17T14:55:42.061Z,14.55
2023-01-17T15:18:14.533Z,14.93
2023-01-17T15:24:34.565Z,13.32
2023-01-17T15:27:02.116Z,15.00
2023-01-17T15:29:32.867Z,19.05
2023-01-17T15:32:19.632Z,23.50
2023-01-17T15:38:28.940Z,15.90
2023-01-17T15:44:49.245Z,14.10
2023-01-17T15:47:39.753Z,11.93
2023-01-17T15:50:21.414Z,13.13
2023-01-17T15:53:02.213Z,13.27
2023-01-17T15:55:37.598Z,12.55
2023-01-17T15:58:21.531Z,11.93
2023-01-17T16:00:48.740Z,12.75
2023-01-17T16:03:32.892Z,27.10
2023-01-17T16:06:02.919Z,11.35
2023-01-17T16:08:41.559Z,11.48
2023-01-17T16:11:11.566Z,12.93
2023-01-17T16:13:39.224Z,12.63
2023-01-17T16:16:17.710Z,12.15
2023-01-17T16:18:46.572Z,11.82
2023-01-17T16:21:28.412Z,10.45
2023-01-17T16:23:58.487Z,10.75
2023-01-17T16:26:25.329Z,12.93
2023-01-17T16:28:52.407Z,13.30
2023-01-17T16:31:19.501Z,11.07
2023-01-17T16:33:49.425Z,14.70
2023-01-17T16:36:17.316Z,12.63
2023-01-17T16:38:45.379Z,12.00
2023-01-17T16:41:12.448Z,11.77
2023-01-17T16:43:40.595Z,12.23
2023-01-17T16:46:07.897Z,12.23
2023-01-17T16:48:36.808Z,17.75
2023-01-17T16:51:07.259Z,14.82
2023-01-17T16:53:35.260Z,14.93
2023-01-17T16:56:09.305Z,13.02
2023-01-17T16:58:36.096Z,12.57
2023-01-17T17:01:02.888Z,12.60
2023-01-17T17:03:31.014Z,14.18
2023-01-17T17:06:02.717Z,13.85
2023-01-17T17:11:16.604Z,11.70
2023-01-17T17:13:45.876Z,11.40
2023-01-17T17:16:21.822Z,12.90
2023-01-17T17:18:56.022Z,12.85
2023-01-17T17:21:22.852Z,12.35
2023-01-17T17:23:56.735Z,17.27
2023-01-17T17:26:26.652Z,18.88
2023-01-17T17:28:54.031Z,18.50
2023-01-17T17:31:21.090Z,19.75
2023-01-17T17:33:48.137Z,28.73
2023-01-17T17:36:15.109Z,16.77
2023-01-17T17:38:50.734Z,22.13
2023-01-17T17:41:20.186Z,28.63
2023-01-17T17:43:49.413Z,20.10
2023-01-17T17:46:17.313Z,20.73
2023-01-17T17:48:45.252Z,22.58
2023-01-17T17:51:34.057Z,17.10
2023-01-17T17:54:06.394Z,23.67
2023-01-17T17:56:35.428Z,17.83
2023-01-17T17:59:03.610Z,13.20
2023-01-17T18:01:31.157Z,14.82
2023-01-17T18:04:02.082Z,12.95
2023-01-17T18:06:28.860Z,12.43
2023-01-17T18:08:55.839Z,11.45
2023-01-17T18:11:27.575Z,10.15
2023-01-17T18:16:35.780Z,9.13
2023-01-17T18:19:04.124Z,10.30
2023-01-17T18:21:36.877Z,11.02
2023-01-17T18:24:06.751Z,10.88
2023-01-17T18:26:36.925Z,13.02
2023-01-17T18:29:08.272Z,14.30
2023-01-17T18:31:35.283Z,18.42
2023-01-17T18:34:07.765Z,18.20
2023-01-17T18:36:34.899Z,16.02
2023-01-17T18:39:09.120Z,16.80
2023-01-17T18:41:35.984Z,16.38
2023-01-17T18:44:06.653Z,17.02
2023-01-17T18:46:36.731Z,16.08
2023-01-17T18:49:06.841Z,17.83
2023-01-17T18:51:34.576Z,19.80
2023-01-17T18:54:05.809Z,18.83
2023-01-17T18:56:36.653Z,16.35
2023-01-17T18:59:10.518Z,15.73
2023-01-17T19:01:37.501Z,14.90
2023-01-17T19:04:06.010Z,15.23
2023-01-17T19:06:38.726Z,15.18
2023-01-17T19:09:07.728Z,14.70
2023-01-17T19:11:35.925Z,15.50
2023-01-17T19:14:04.082Z,14.40
2023-01-17T19:16:34.792Z,14.40
2023-01-17T19:19:04.796Z,15.17
2023-01-17T19:21:33.020Z,15.68
2023-01-17T19:24:03.033Z,15.73
2023-01-17T19:30:21.909Z,16.73
2023-01-17T19:32:52.384Z,16.77
2023-01-17T19:35:22.466Z,18.38
2023-01-17T19:37:51.531Z,18.15
2023-01-17T19:40:19.921Z,17.85
2023-01-17T19:42:47.626Z,16.60
2023-01-17T19:45:15.093Z,17.27
2023-01-17T19:47:41.960Z,15.38
2023-01-17T19:50:09.870Z,16.55
2023-01-17T19:52:38.780Z,16.23
2023-01-17T19:55:09.940Z,16.50
2023-01-17T19:57:37.472Z,17.63
2023-01-17T20:00:13.182Z,19.92
2023-01-17T20:02:40.468Z,20.90
2023-01-17T20:05:09.336Z,22.67
2023-01-17T20:07:36.143Z,28.67
2023-01-17T20:10:03.134Z,27.95
2023-01-17T20:12:33.623Z,25.63
2023-01-17T20:15:04.206Z,25.55
2023-01-17T20:17:31.791Z,24.65
2023-01-17T20:19:59.612Z,23.25
2023-01-17T20:22:26.593Z,22.42
2023-01-17T20:24:53.430Z,23.20
2023-01-17T20:27:24.068Z,27.90
2023-01-17T20:29:50.796Z,28.80
2023-01-17T20:32:18.074Z,25.75
2023-01-17T20:34:45.573Z,23.90
2023-01-17T20:37:14.482Z,24.02
2023-01-17T20:39:41.498Z,22.73
2023-01-17T20:42:08.269Z,23.92
2023-01-17T20:44:38.037Z,23.02
2023-01-17T20:47:05.019Z,26.58
2023-01-17T20:49:32.740Z,27.83
2023-01-17T20:52:02.239Z,24.58
2023-01-17T20:54:29.172Z,25.88
2023-01-17T20:56:55.993Z,23.90
2023-01-17T20:59:22.904Z,26.65
2023-01-17T21:01:50.658Z,26.10
2023-01-17T21:04:27.496Z,27.42
2023-01-17T21:06:54.766Z,22.80
2023-01-17T21:09:22.036Z,24.85
2023-01-17T21:11:49.031Z,25.92
2023-01-17T21:14:15.867Z,25.10
2023-01-17T21:16:44.312Z,24.88
2023-01-17T21:19:16.121Z,24.38
2023-01-17T21:24:17.877Z,25.58
2023-01-17T21:26:45.833Z,25.73
2023-01-17T21:29:18.331Z,24.70
2023-01-17T21:31:45.339Z,25.42
2023-01-17T21:34:13.667Z,25.35
2023-01-17T21:36:42.163Z,25.27
2023-01-17T21:39:29.135Z,24.80
2023-01-17T21:41:58.057Z,25.00
2023-01-17T21:44:27.852Z,24.98
2023-01-17T21:46:56.512Z,23.80
2023-01-17T21:49:23.644Z,24.42
2023-01-17T21:51:53.156Z,24.65
2023-01-17T21:54:20.272Z,24.08
2023-01-17T21:57:07.896Z,22.80
2023-01-17T21:59:34.695Z,24.13
2023-01-17T22:02:04.191Z,25.25
2023-01-17T22:04:31.000Z,23.65
2023-01-17T22:06:57.858Z,23.95
2023-01-17T22:09:24.644Z,25.23
2023-01-17T22:11:51.398Z,25.35
2023-01-17T22:14:22.865Z,23.77
2023-01-17T22:16:50.310Z,24.83
2023-01-17T22:19:19.107Z,25.73
2023-01-17T22:21:45.852Z,24.38
2023-01-17T22:24:13.705Z,23.55
2023-01-17T22:26:41.905Z,24.73
2023-01-17T22:29:11.093Z,25.50
2023-01-17T22:31:37.877Z,22.95
2023-01-17T22:34:05.460Z,22.52
2023-01-17T22:36:33.390Z,22.60
2023-01-17T22:39:00.584Z,22.45
2023-01-17T22:41:29.883Z,22.45
2023-01-17T22:43:58.706Z,23.02
2023-01-17T22:46:32.431Z,23.60
2023-01-17T22:48:59.807Z,22.65
2023-01-17T22:51:28.173Z,23.02
2023-01-17T22:53:58.260Z,25.35
2023-01-17T22:56:34.083Z,23.42
2023-01-17T22:59:01.530Z,23.50
2023-01-17T23:04:15.254Z,24.48
2023-01-17T23:06:45.390Z,25.43
2023-01-17T23:09:15.458Z,24.95
2023-01-17T23:11:49.951Z,24.27
2023-01-17T23:14:52.955Z,24.00
2023-01-17T23:17:39.676Z,24.05
2023-01-17T23:39:04.469Z,20.20
2023-01-17T23:41:49.591Z,21.17
2023-01-17T23:44:16.412Z,20.80
2023-01-17T23:46:44.868Z,21.95
2023-01-17T23:49:11.720Z,20.75
2023-01-17T23:51:38.444Z,19.52
2023-01-17T23:54:07.781Z,20.75
2023-01-17T23:56:34.528Z,20.40
2023-01-17T23:59:01.311Z,18.65
